sensor_id;sensor_type;location;lat;lon;timestamp;temperature;humidity
827;DHT22;395;48.132;11.608;2023-04-25T00:02:03;11.30;1.00
827;DHT22;395;48.132;11.608;2023-04-25T00:04:29;11.50;1.00
827;DHT22;395;48.132;11.608;2023-04-25T00:06:55;11.50;1.00
827;DHT22;395;48.132;11.608;2023-04-25T00:09:21;11.60;1.00
827;DHT22;395;48.132;11.608;2023-04-25T00:11:47;11.60;1.00
827;DHT22;395;48.132;11.608;2023-04-25T00:14:13;11.60;1.00
827;DHT22;395;48.132;11.608;2023-04-25T00:16:39;11.50;1.00
827;DHT22;395;48.132;11.608;2023-04-25T00:19:06;11.50;1.00
827;DHT22;395;48.132;11.608;2023-04-25T00:21:33;11.60;1.00
827;DHT22;395;48.132;11.608;2023-04-25T00:23:59;11.60;1.00
827;DHT22;395;48.132;11.608;2023-04-25T00:26:25;11.60;1.00
827;DHT22;395;48.132;11.608;2023-04-25T00:28:51;11.60;1.00
827;DHT22;395;48.132;11.608;2023-04-25T00:31:16;11.60;1.00
827;DHT22;395;48.132;11.608;2023-04-25T00:33:42;11.50;1.00
827;DHT22;395;48.132;11.608;2023-04-25T00:36:08;11.50;1.00
827;DHT22;395;48.132;11.608;2023-04-25T00:38:34;11.50;1.00
827;DHT22;395;48.132;11.608;2023-04-25T00:41:00;11.50;1.00
827;DHT22;395;48.132;11.608;2023-04-25T00:43:26;11.50;1.00
827;DHT22;395;48.132;11.608;2023-04-25T00:45:53;11.50;1.00
827;DHT22;395;48.132;11.608;2023-04-25T00:48:22;11.40;1.00
827;DHT22;395;48.132;11.608;2023-04-25T00:50:52;11.50;1.00
827;DHT22;395;48.132;11.608;2023-04-25T00:53:20;11.50;1.00
827;DHT22;395;48.132;11.608;2023-04-25T00:55:46;11.50;1.00
827;DHT22;395;48.132;11.608;2023-04-25T00:58:12;11.50;1.00
827;DHT22;395;48.132;11.608;2023-04-25T01:00:38;11.50;1.00
827;DHT22;395;48.132;11.608;2023-04-25T01:03:05;11.50;1.00
827;DHT22;395;48.132;11.608;2023-04-25T01:05:31;11.50;1.00
827;DHT22;395;48.132;11.608;2023-04-25T01:07:57;11.50;1.00
827;DHT22;395;48.132;11.608;2023-04-25T01:10:23;11.50;1.00
827;DHT22;395;48.132;11.608;2023-04-25T01:12:49;11.40;1.00
827;DHT22;395;48.132;11.608;2023-04-25T01:15:15;11.40;1.00
827;DHT22;395;48.132;11.608;2023-04-25T01:17:41;11.40;1.00
827;DHT22;395;48.132;11.608;2023-04-25T01:20:08;11.40;1.00
827;DHT22;395;48.132;11.608;2023-04-25T01:22:35;11.40;1.00
827;DHT22;395;48.132;11.608;2023-04-25T01:25:00;11.30;1.00
827;DHT22;395;48.132;11.608;2023-04-25T01:27:27;11.30;1.00
827;DHT22;395;48.132;11.608;2023-04-25T01:29:54;11.30;1.00
827;DHT22;395;48.132;11.608;2023-04-25T01:32:22;11.30;1.00
827;DHT22;395;48.132;11.608;2023-04-25T01:34:48;11.30;1.00
827;DHT22;395;48.132;11.608;2023-04-25T01:37:13;11.30;1.00
827;DHT22;395;48.132;11.608;2023-04-25T01:39:40;11.20;1.00
827;DHT22;395;48.132;11.608;2023-04-25T01:42:06;11.20;1.00
827;DHT22;395;48.132;11.608;2023-04-25T01:44:32;11.20;1.00
827;DHT22;395;48.132;11.608;2023-04-25T01:46:58;11.20;1.00
827;DHT22;395;48.132;11.608;2023-04-25T01:49:23;11.20;1.00
827;DHT22;395;48.132;11.608;2023-04-25T01:51:49;11.20;1.00
827;DHT22;395;48.132;11.608;2023-04-25T01:54:15;11.10;1.00
827;DHT22;395;48.132;11.608;2023-04-25T01:56:41;11.10;1.00
827;DHT22;395;48.132;11.608;2023-04-25T01:59:06;11.10;1.00
827;DHT22;395;48.132;11.608;2023-04-25T02:01:32;11.10;1.00
827;DHT22;395;48.132;11.608;2023-04-25T02:03:58;11.10;1.00
827;DHT22;395;48.132;11.608;2023-04-25T02:06:23;11.10;1.00
827;DHT22;395;48.132;11.608;2023-04-25T02:08:49;11.10;1.00
827;DHT22;395;48.132;11.608;2023-04-25T02:11:15;11.10;1.00
827;DHT22;395;48.132;11.608;2023-04-25T02:13:41;11.10;1.00
827;DHT22;395;48.132;11.608;2023-04-25T02:16:06;11.10;1.00
827;DHT22;395;48.132;11.608;2023-04-25T02:18:32;11.10;1.00
827;DHT22;395;48.132;11.608;2023-04-25T02:20:59;11.00;1.00
827;DHT22;395;48.132;11.608;2023-04-25T02:23:25;11.00;1.00
827;DHT22;395;48.132;11.608;2023-04-25T02:25:51;11.00;1.00
827;DHT22;395;48.132;11.608;2023-04-25T02:28:17;11.00;1.00
827;DHT22;395;48.132;11.608;2023-04-25T02:30:43;11.00;1.00
827;DHT22;395;48.132;11.608;2023-04-25T02:33:08;11.00;1.00
827;DHT22;395;48.132;11.608;2023-04-25T02:35:34;11.00;1.00
827;DHT22;395;48.132;11.608;2023-04-25T02:38:00;11.00;1.00
827;DHT22;395;48.132;11.608;2023-04-25T02:40:25;11.00;1.00
827;DHT22;395;48.132;11.608;2023-04-25T02:42:51;11.00;1.00
827;DHT22;395;48.132;11.608;2023-04-25T02:45:17;11.00;1.00
827;DHT22;395;48.132;11.608;2023-04-25T02:47:42;11.00;1.00
827;DHT22;395;48.132;11.608;2023-04-25T02:50:08;11.00;1.00
827;DHT22;395;48.132;11.608;2023-04-25T02:52:34;11.00;1.00
827;DHT22;395;48.132;11.608;2023-04-25T02:55:00;11.00;1.00
827;DHT22;395;48.132;11.608;2023-04-25T02:57:26;11.10;1.00
827;DHT22;395;48.132;11.608;2023-04-25T02:59:51;11.10;1.00
827;DHT22;395;48.132;11.608;2023-04-25T03:02:17;11.00;1.00
827;DHT22;395;48.132;11.608;2023-04-25T03:04:43;11.10;1.00
827;DHT22;395;48.132;11.608;2023-04-25T03:07:08;11.10;1.00
827;DHT22;395;48.132;11.608;2023-04-25T03:09:34;11.10;1.00
827;DHT22;395;48.132;11.608;2023-04-25T03:12:00;11.00;1.00
827;DHT22;395;48.132;11.608;2023-04-25T03:14:26;11.00;1.00
827;DHT22;395;48.132;11.608;2023-04-25T03:16:52;11.00;1.00
827;DHT22;395;48.132;11.608;2023-04-25T03:19:18;11.00;1.00
827;DHT22;395;48.132;11.608;2023-04-25T03:21:44;10.80;1.00
827;DHT22;395;48.132;11.608;2023-04-25T03:24:10;10.90;1.00
827;DHT22;395;48.132;11.608;2023-04-25T03:26:39;10.80;1.00
827;DHT22;395;48.132;11.608;2023-04-25T03:29:04;10.90;1.00
827;DHT22;395;48.132;11.608;2023-04-25T03:31:30;10.80;1.00
827;DHT22;395;48.132;11.608;2023-04-25T03:33:56;10.80;1.00
827;DHT22;395;48.132;11.608;2023-04-25T03:36:22;10.80;1.00
827;DHT22;395;48.132;11.608;2023-04-25T03:38:47;10.80;1.00
827;DHT22;395;48.132;11.608;2023-04-25T03:41:13;10.70;1.00
827;DHT22;395;48.132;11.608;2023-04-25T03:43:39;10.70;1.00
827;DHT22;395;48.132;11.608;2023-04-25T03:46:05;10.70;1.00
827;DHT22;395;48.132;11.608;2023-04-25T03:48:30;10.70;1.00
827;DHT22;395;48.132;11.608;2023-04-25T03:50:56;10.60;1.00
827;DHT22;395;48.132;11.608;2023-04-25T03:53:22;10.60;1.00
827;DHT22;395;48.132;11.608;2023-04-25T03:55:47;10.60;1.00
827;DHT22;395;48.132;11.608;2023-04-25T03:58:13;10.60;1.00
827;DHT22;395;48.132;11.608;2023-04-25T04:00:39;10.50;1.00
827;DHT22;395;48.132;11.608;2023-04-25T04:03:04;10.50;1.00
827;DHT22;395;48.132;11.608;2023-04-25T04:05:30;10.50;1.00
827;DHT22;395;48.132;11.608;2023-04-25T04:07:56;10.50;1.00
827;DHT22;395;48.132;11.608;2023-04-25T04:10:22;10.50;1.00
827;DHT22;395;48.132;11.608;2023-04-25T04:12:47;10.50;1.00
827;DHT22;395;48.132;11.608;2023-04-25T04:15:13;10.50;1.00
827;DHT22;395;48.132;11.608;2023-04-25T04:17:39;10.50;1.00
827;DHT22;395;48.132;11.608;2023-04-25T04:20:06;10.50;1.00
827;DHT22;395;48.132;11.608;2023-04-25T04:22:33;10.60;1.00
827;DHT22;395;48.132;11.608;2023-04-25T04:24:58;10.50;1.00
827;DHT22;395;48.132;11.608;2023-04-25T04:27:24;10.50;1.00
827;DHT22;395;48.132;11.608;2023-04-25T04:29:50;10.50;1.00
827;DHT22;395;48.132;11.608;2023-04-25T04:32:17;10.60;1.00
827;DHT22;395;48.132;11.608;2023-04-25T04:34:43;10.60;1.00
827;DHT22;395;48.132;11.608;2023-04-25T04:37:09;10.60;1.00
827;DHT22;395;48.132;11.608;2023-04-25T04:39:36;10.50;1.00
827;DHT22;395;48.132;11.608;2023-04-25T04:42:02;10.50;1.00
827;DHT22;395;48.132;11.608;2023-04-25T04:44:29;10.50;1.00
827;DHT22;395;48.132;11.608;2023-04-25T04:46:54;10.60;1.00
827;DHT22;395;48.132;11.608;2023-04-25T04:49:20;10.60;1.00
827;DHT22;395;48.132;11.608;2023-04-25T04:51:46;10.50;1.00
827;DHT22;395;48.132;11.608;2023-04-25T04:54:12;10.60;1.00
827;DHT22;395;48.132;11.608;2023-04-25T04:56:38;10.60;1.00
827;DHT22;395;48.132;11.608;2023-04-25T04:59:04;10.50;1.00
827;DHT22;395;48.132;11.608;2023-04-25T05:01:30;10.50;1.00
827;DHT22;395;48.132;11.608;2023-04-25T05:03:56;10.50;1.00
827;DHT22;395;48.132;11.608;2023-04-25T05:06:29;10.50;1.00
827;DHT22;395;48.132;11.608;2023-04-25T05:08:55;10.40;1.00
827;DHT22;395;48.132;11.608;2023-04-25T05:11:22;10.40;1.00
827;DHT22;395;48.132;11.608;2023-04-25T05:13:49;10.50;1.00
827;DHT22;395;48.132;11.608;2023-04-25T05:16:15;10.40;1.00
827;DHT22;395;48.132;11.608;2023-04-25T05:18:40;10.50;1.00
827;DHT22;395;48.132;11.608;2023-04-25T05:21:06;10.40;1.00
827;DHT22;395;48.132;11.608;2023-04-25T05:23:32;10.50;1.00
827;DHT22;395;48.132;11.608;2023-04-25T05:25:59;10.50;1.00
827;DHT22;395;48.132;11.608;2023-04-25T05:28:25;10.60;1.00
827;DHT22;395;48.132;11.608;2023-04-25T05:30:51;10.60;1.00
827;DHT22;395;48.132;11.608;2023-04-25T05:33:17;10.60;1.00
827;DHT22;395;48.132;11.608;2023-04-25T05:35:43;10.60;1.00
827;DHT22;395;48.132;11.608;2023-04-25T05:38:09;10.60;1.00
827;DHT22;395;48.132;11.608;2023-04-25T05:40:35;10.60;1.00
827;DHT22;395;48.132;11.608;2023-04-25T05:43:00;10.60;1.00
827;DHT22;395;48.132;11.608;2023-04-25T05:45:26;10.70;1.00
827;DHT22;395;48.132;11.608;2023-04-25T05:47:52;10.70;1.00
827;DHT22;395;48.132;11.608;2023-04-25T05:50:17;10.60;1.00
827;DHT22;395;48.132;11.608;2023-04-25T05:52:43;10.60;1.00
827;DHT22;395;48.132;11.608;2023-04-25T05:55:09;10.50;1.00
827;DHT22;395;48.132;11.608;2023-04-25T05:57:34;10.50;1.00
827;DHT22;395;48.132;11.608;2023-04-25T06:00:00;10.40;1.00
827;DHT22;395;48.132;11.608;2023-04-25T06:02:26;10.20;1.00
827;DHT22;395;48.132;11.608;2023-04-25T06:04:52;10.10;1.00
827;DHT22;395;48.132;11.608;2023-04-25T06:07:19;10.10;1.00
827;DHT22;395;48.132;11.608;2023-04-25T06:09:45;10.00;1.00
827;DHT22;395;48.132;11.608;2023-04-25T06:12:11;9.70;1.00
827;DHT22;395;48.132;11.608;2023-04-25T06:14:36;9.50;1.00
827;DHT22;395;48.132;11.608;2023-04-25T06:17:03;9.20;1.00
827;DHT22;395;48.132;11.608;2023-04-25T06:19:32;9.20;1.00
827;DHT22;395;48.132;11.608;2023-04-25T06:21:58;9.20;1.00
827;DHT22;395;48.132;11.608;2023-04-25T06:24:24;9.20;1.00
827;DHT22;395;48.132;11.608;2023-04-25T06:26:49;9.30;1.00
827;DHT22;395;48.132;11.608;2023-04-25T06:29:15;9.30;1.30
827;DHT22;395;48.132;11.608;2023-04-25T06:31:41;9.30;1.00
827;DHT22;395;48.132;11.608;2023-04-25T06:34:06;9.40;1.30
827;DHT22;395;48.132;11.608;2023-04-25T06:36:32;9.40;2.10
827;DHT22;395;48.132;11.608;2023-04-25T06:38:58;9.50;2.20
827;DHT22;395;48.132;11.608;2023-04-25T06:41:23;9.60;1.60
827;DHT22;395;48.132;11.608;2023-04-25T06:43:49;9.60;1.60
827;DHT22;395;48.132;11.608;2023-04-25T06:46:14;9.60;2.00
827;DHT22;395;48.132;11.608;2023-04-25T06:48:40;9.80;2.30
827;DHT22;395;48.132;11.608;2023-04-25T06:51:06;9.80;2.20
827;DHT22;395;48.132;11.608;2023-04-25T06:53:31;9.70;2.50
827;DHT22;395;48.132;11.608;2023-04-25T06:55:57;9.70;3.00
827;DHT22;395;48.132;11.608;2023-04-25T06:58:22;9.80;2.40
827;DHT22;395;48.132;11.608;2023-04-25T07:00:48;9.80;3.20
827;DHT22;395;48.132;11.608;2023-04-25T07:03:14;9.80;2.00
827;DHT22;395;48.132;11.608;2023-04-25T07:05:40;9.70;2.30
827;DHT22;395;48.132;11.608;2023-04-25T07:08:06;9.80;3.20
827;DHT22;395;48.132;11.608;2023-04-25T07:10:31;9.80;3.00
827;DHT22;395;48.132;11.608;2023-04-25T07:12:57;9.90;2.70
827;DHT22;395;48.132;11.608;2023-04-25T07:15:22;9.80;2.00
827;DHT22;395;48.132;11.608;2023-04-25T07:17:48;9.90;2.00
827;DHT22;395;48.132;11.608;2023-04-25T07:20:14;10.00;1.20
827;DHT22;395;48.132;11.608;2023-04-25T07:22:39;10.00;1.60
827;DHT22;395;48.132;11.608;2023-04-25T07:25:05;10.20;1.80
827;DHT22;395;48.132;11.608;2023-04-25T07:27:31;10.20;2.20
827;DHT22;395;48.132;11.608;2023-04-25T07:29:57;10.30;1.00
827;DHT22;395;48.132;11.608;2023-04-25T07:32:23;10.20;1.00
827;DHT22;395;48.132;11.608;2023-04-25T07:34:49;10.30;1.00
827;DHT22;395;48.132;11.608;2023-04-25T07:37:14;10.40;1.00
827;DHT22;395;48.132;11.608;2023-04-25T07:39:40;10.30;1.00
827;DHT22;395;48.132;11.608;2023-04-25T07:42:06;10.50;1.00
827;DHT22;395;48.132;11.608;2023-04-25T07:44:34;10.40;1.00
827;DHT22;395;48.132;11.608;2023-04-25T07:47:07;10.40;1.00
827;DHT22;395;48.132;11.608;2023-04-25T07:49:34;10.40;1.00
827;DHT22;395;48.132;11.608;2023-04-25T07:52:00;10.30;1.00
827;DHT22;395;48.132;11.608;2023-04-25T07:54:26;10.30;1.00
827;DHT22;395;48.132;11.608;2023-04-25T07:56:51;10.40;1.00
827;DHT22;395;48.132;11.608;2023-04-25T07:59:17;10.20;1.00
827;DHT22;395;48.132;11.608;2023-04-25T08:01:43;10.10;1.00
827;DHT22;395;48.132;11.608;2023-04-25T08:04:08;10.00;1.00
827;DHT22;395;48.132;11.608;2023-04-25T08:06:34;10.10;1.00
827;DHT22;395;48.132;11.608;2023-04-25T08:09:01;10.10;1.00
827;DHT22;395;48.132;11.608;2023-04-25T08:11:27;10.20;1.00
827;DHT22;395;48.132;11.608;2023-04-25T08:13:52;10.30;1.00
827;DHT22;395;48.132;11.608;2023-04-25T08:16:18;10.40;1.00
827;DHT22;395;48.132;11.608;2023-04-25T08:18:43;10.50;1.00
827;DHT22;395;48.132;11.608;2023-04-25T08:21:09;10.60;1.00
827;DHT22;395;48.132;11.608;2023-04-25T08:23:37;10.60;1.00
827;DHT22;395;48.132;11.608;2023-04-25T08:26:03;10.60;1.00
827;DHT22;395;48.132;11.608;2023-04-25T08:28:28;10.60;1.00
827;DHT22;395;48.132;11.608;2023-04-25T08:30:54;10.80;1.00
827;DHT22;395;48.132;11.608;2023-04-25T08:33:20;10.60;1.00
827;DHT22;395;48.132;11.608;2023-04-25T08:35:45;10.70;1.00
827;DHT22;395;48.132;11.608;2023-04-25T08:38:11;10.70;1.00
827;DHT22;395;48.132;11.608;2023-04-25T08:40:38;10.80;1.00
827;DHT22;395;48.132;11.608;2023-04-25T08:43:06;10.90;1.00
827;DHT22;395;48.132;11.608;2023-04-25T08:45:39;10.90;1.00
827;DHT22;395;48.132;11.608;2023-04-25T08:48:10;11.00;1.00
827;DHT22;395;48.132;11.608;2023-04-25T08:50:42;10.90;1.00
827;DHT22;395;48.132;11.608;2023-04-25T08:53:12;11.00;1.00
827;DHT22;395;48.132;11.608;2023-04-25T08:55:45;10.90;1.00
827;DHT22;395;48.132;11.608;2023-04-25T08:58:12;11.00;1.00
827;DHT22;395;48.132;11.608;2023-04-25T09:00:39;11.00;1.00
827;DHT22;395;48.132;11.608;2023-04-25T09:03:04;11.00;1.00
827;DHT22;395;48.132;11.608;2023-04-25T09:05:34;11.00;1.00
827;DHT22;395;48.132;11.608;2023-04-25T09:08:01;11.10;1.00
827;DHT22;395;48.132;11.608;2023-04-25T09:10:27;11.20;1.00
827;DHT22;395;48.132;11.608;2023-04-25T09:13:10;11.20;1.00
827;DHT22;395;48.132;11.608;2023-04-25T09:15:53;11.30;1.00
827;DHT22;395;48.132;11.608;2023-04-25T09:18:32;11.30;1.00
827;DHT22;395;48.132;11.608;2023-04-25T09:21:07;11.40;1.00
827;DHT22;395;48.132;11.608;2023-04-25T09:23:45;11.40;1.00
827;DHT22;395;48.132;11.608;2023-04-25T09:26:18;11.40;1.00
827;DHT22;395;48.132;11.608;2023-04-25T09:28:44;11.40;1.00
827;DHT22;395;48.132;11.608;2023-04-25T09:31:11;11.50;1.00
827;DHT22;395;48.132;11.608;2023-04-25T09:33:37;11.50;1.00
827;DHT22;395;48.132;11.608;2023-04-25T09:36:05;11.40;1.00
827;DHT22;395;48.132;11.608;2023-04-25T09:38:32;11.40;1.00
827;DHT22;395;48.132;11.608;2023-04-25T09:40:58;11.50;1.00
827;DHT22;395;48.132;11.608;2023-04-25T09:43:26;11.40;1.00
827;DHT22;395;48.132;11.608;2023-04-25T09:45:53;11.40;1.00
827;DHT22;395;48.132;11.608;2023-04-25T09:48:23;11.30;1.00
827;DHT22;395;48.132;11.608;2023-04-25T09:51:14;11.40;1.00
827;DHT22;395;48.132;11.608;2023-04-25T09:53:42;11.20;1.00
827;DHT22;395;48.132;11.608;2023-04-25T09:56:10;11.30;1.00
827;DHT22;395;48.132;11.608;2023-04-25T09:58:37;11.30;1.00
827;DHT22;395;48.132;11.608;2023-04-25T10:01:05;11.30;1.00
827;DHT22;395;48.132;11.608;2023-04-25T10:03:36;11.40;1.00
827;DHT22;395;48.132;11.608;2023-04-25T10:06:05;11.40;1.00
827;DHT22;395;48.132;11.608;2023-04-25T10:08:34;11.60;1.00
827;DHT22;395;48.132;11.608;2023-04-25T10:11:04;11.70;1.00
827;DHT22;395;48.132;11.608;2023-04-25T10:13:31;11.90;1.00
827;DHT22;395;48.132;11.608;2023-04-25T10:15:58;11.90;1.00
827;DHT22;395;48.132;11.608;2023-04-25T10:18:28;12.00;1.00
827;DHT22;395;48.132;11.608;2023-04-25T10:20:55;11.90;1.00
827;DHT22;395;48.132;11.608;2023-04-25T10:23:21;12.00;1.00
827;DHT22;395;48.132;11.608;2023-04-25T10:25:48;11.80;1.00
827;DHT22;395;48.132;11.608;2023-04-25T10:28:14;11.90;1.00
827;DHT22;395;48.132;11.608;2023-04-25T10:30:57;12.10;1.00
827;DHT22;395;48.132;11.608;2023-04-25T10:33:37;12.20;1.00
827;DHT22;395;48.132;11.608;2023-04-25T10:36:14;12.40;1.00
827;DHT22;395;48.132;11.608;2023-04-25T10:38:42;12.30;1.00
827;DHT22;395;48.132;11.608;2023-04-25T10:41:10;12.40;1.00
827;DHT22;395;48.132;11.608;2023-04-25T10:43:46;12.40;1.00
827;DHT22;395;48.132;11.608;2023-04-25T10:46:23;12.10;1.00
827;DHT22;395;48.132;11.608;2023-04-25T10:48:54;12.10;1.00
827;DHT22;395;48.132;11.608;2023-04-25T10:51:26;12.00;1.00
827;DHT22;395;48.132;11.608;2023-04-25T10:54:06;11.90;1.00
827;DHT22;395;48.132;11.608;2023-04-25T11:01:43;11.60;1.00
827;DHT22;395;48.132;11.608;2023-04-25T11:04:31;11.50;1.00
827;DHT22;395;48.132;11.608;2023-04-25T11:09:39;11.40;1.00
827;DHT22;395;48.132;11.608;2023-04-25T11:12:08;11.40;1.00
827;DHT22;395;48.132;11.608;2023-04-25T11:14:33;11.30;1.00
827;DHT22;395;48.132;11.608;2023-04-25T11:16:59;11.20;1.00
827;DHT22;395;48.132;11.608;2023-04-25T11:19:27;11.10;1.00
827;DHT22;395;48.132;11.608;2023-04-25T11:21:57;11.00;1.00
827;DHT22;395;48.132;11.608;2023-04-25T11:24:31;11.00;1.00
827;DHT22;395;48.132;11.608;2023-04-25T11:26:58;11.00;1.00
827;DHT22;395;48.132;11.608;2023-04-25T11:29:26;11.00;1.00
827;DHT22;395;48.132;11.608;2023-04-25T11:31:53;11.10;1.00
827;DHT22;395;48.132;11.608;2023-04-25T11:34:22;10.90;1.00
827;DHT22;395;48.132;11.608;2023-04-25T11:36:47;10.80;1.00
827;DHT22;395;48.132;11.608;2023-04-25T11:39:13;10.90;1.00
827;DHT22;395;48.132;11.608;2023-04-25T11:41:41;10.90;1.00
827;DHT22;395;48.132;11.608;2023-04-25T11:44:07;10.90;1.00
827;DHT22;395;48.132;11.608;2023-04-25T11:46:35;10.90;1.00
827;DHT22;395;48.132;11.608;2023-04-25T11:49:03;10.80;1.00
827;DHT22;395;48.132;11.608;2023-04-25T11:51:30;10.80;1.00
827;DHT22;395;48.132;11.608;2023-04-25T11:53:57;10.80;1.00
827;DHT22;395;48.132;11.608;2023-04-25T11:56:22;10.80;1.00
827;DHT22;395;48.132;11.608;2023-04-25T11:59:04;10.80;1.00
827;DHT22;395;48.132;11.608;2023-04-25T12:01:35;10.90;1.00
827;DHT22;395;48.132;11.608;2023-04-25T12:04:15;10.90;1.00
827;DHT22;395;48.132;11.608;2023-04-25T12:06:42;11.00;1.00
827;DHT22;395;48.132;11.608;2023-04-25T12:09:10;10.90;1.00
827;DHT22;395;48.132;11.608;2023-04-25T12:11:47;10.90;1.00
827;DHT22;395;48.132;11.608;2023-04-25T12:14:24;10.80;1.00
827;DHT22;395;48.132;11.608;2023-04-25T12:16:53;10.80;1.00
827;DHT22;395;48.132;11.608;2023-04-25T12:19:21;10.70;1.00
827;DHT22;395;48.132;11.608;2023-04-25T12:21:47;10.70;1.00
827;DHT22;395;48.132;11.608;2023-04-25T12:24:18;10.60;1.00
827;DHT22;395;48.132;11.608;2023-04-25T12:26:58;10.60;1.00
827;DHT22;395;48.132;11.608;2023-04-25T12:29:26;10.60;1.00
827;DHT22;395;48.132;11.608;2023-04-25T12:31:53;10.60;1.00
827;DHT22;395;48.132;11.608;2023-04-25T12:34:20;10.50;1.00
827;DHT22;395;48.132;11.608;2023-04-25T12:36:47;10.50;1.00
827;DHT22;395;48.132;11.608;2023-04-25T12:39:17;10.60;1.00
827;DHT22;395;48.132;11.608;2023-04-25T12:41:44;10.50;1.00
827;DHT22;395;48.132;11.608;2023-04-25T12:44:10;10.40;1.00
827;DHT22;395;48.132;11.608;2023-04-25T12:46:36;10.50;1.00
827;DHT22;395;48.132;11.608;2023-04-25T12:49:02;10.50;1.00
827;DHT22;395;48.132;11.608;2023-04-25T12:51:29;10.60;1.00
827;DHT22;395;48.132;11.608;2023-04-25T12:53:54;10.50;1.00
827;DHT22;395;48.132;11.608;2023-04-25T12:56:21;10.50;1.00
827;DHT22;395;48.132;11.608;2023-04-25T12:58:46;10.60;1.00
827;DHT22;395;48.132;11.608;2023-04-25T13:01:14;10.60;1.00
827;DHT22;395;48.132;11.608;2023-04-25T13:03:40;10.50;1.00
827;DHT22;395;48.132;11.608;2023-04-25T13:06:06;10.40;1.00
827;DHT22;395;48.132;11.608;2023-04-25T13:08:32;10.30;1.00
827;DHT22;395;48.132;11.608;2023-04-25T13:10:58;10.30;1.00
827;DHT22;395;48.132;11.608;2023-04-25T13:13:23;10.30;1.00
827;DHT22;395;48.132;11.608;2023-04-25T13:15:50;10.10;1.00
827;DHT22;395;48.132;11.608;2023-04-25T13:18:15;10.00;1.00
827;DHT22;395;48.132;11.608;2023-04-25T13:20:41;10.10;1.00
827;DHT22;395;48.132;11.608;2023-04-25T13:23:07;10.10;1.00
827;DHT22;395;48.132;11.608;2023-04-25T13:25:32;10.00;1.00
827;DHT22;395;48.132;11.608;2023-04-25T13:27:58;9.90;1.00
827;DHT22;395;48.132;11.608;2023-04-25T13:30:24;9.80;1.00
827;DHT22;395;48.132;11.608;2023-04-25T13:32:49;9.90;1.00
827;DHT22;395;48.132;11.608;2023-04-25T13:35:16;9.80;1.00
827;DHT22;395;48.132;11.608;2023-04-25T13:37:42;9.90;1.00
827;DHT22;395;48.132;11.608;2023-04-25T13:40:09;9.90;1.00
827;DHT22;395;48.132;11.608;2023-04-25T13:42:37;9.80;2.00
827;DHT22;395;48.132;11.608;2023-04-25T13:45:03;9.80;2.50
827;DHT22;395;48.132;11.608;2023-04-25T13:47:29;9.70;2.60
827;DHT22;395;48.132;11.608;2023-04-25T13:49:55;9.60;2.90
827;DHT22;395;48.132;11.608;2023-04-25T13:52:21;9.60;2.10
827;DHT22;395;48.132;11.608;2023-04-25T13:54:47;9.50;2.90
827;DHT22;395;48.132;11.608;2023-04-25T13:57:13;9.40;3.10
827;DHT22;395;48.132;11.608;2023-04-25T13:59:39;9.50;3.90
827;DHT22;395;48.132;11.608;2023-04-25T14:02:06;9.40;5.20
827;DHT22;395;48.132;11.608;2023-04-25T14:04:33;9.30;5.80
827;DHT22;395;48.132;11.608;2023-04-25T14:06:58;9.20;6.10
827;DHT22;395;48.132;11.608;2023-04-25T14:09:24;9.30;6.30
827;DHT22;395;48.132;11.608;2023-04-25T14:11:54;9.30;6.50
827;DHT22;395;48.132;11.608;2023-04-25T14:14:21;9.20;5.10
827;DHT22;395;48.132;11.608;2023-04-25T14:16:47;9.30;5.10
827;DHT22;395;48.132;11.608;2023-04-25T14:19:14;9.20;6.10
827;DHT22;395;48.132;11.608;2023-04-25T14:21:40;9.50;6.00
827;DHT22;395;48.132;11.608;2023-04-25T14:24:06;9.30;6.40
827;DHT22;395;48.132;11.608;2023-04-25T14:26:33;9.20;4.20
827;DHT22;395;48.132;11.608;2023-04-25T14:28:59;9.30;4.50
827;DHT22;395;48.132;11.608;2023-04-25T14:31:25;9.20;5.40
827;DHT22;395;48.132;11.608;2023-04-25T14:33:51;9.30;6.40
827;DHT22;395;48.132;11.608;2023-04-25T14:36:16;9.30;5.40
827;DHT22;395;48.132;11.608;2023-04-25T14:38:42;9.30;4.50
827;DHT22;395;48.132;11.608;2023-04-25T14:41:08;9.30;6.10
827;DHT22;395;48.132;11.608;2023-04-25T14:43:34;9.40;6.50
827;DHT22;395;48.132;11.608;2023-04-25T14:46:01;9.50;6.20
827;DHT22;395;48.132;11.608;2023-04-25T14:48:28;9.60;4.00
827;DHT22;395;48.132;11.608;2023-04-25T14:50:54;9.70;4.10
827;DHT22;395;48.132;11.608;2023-04-25T14:53:21;9.60;3.00
827;DHT22;395;48.132;11.608;2023-04-25T14:55:47;9.70;4.10
827;DHT22;395;48.132;11.608;2023-04-25T14:58:14;9.80;2.80
827;DHT22;395;48.132;11.608;2023-04-25T15:00:40;10.00;2.70
827;DHT22;395;48.132;11.608;2023-04-25T15:03:06;9.90;1.00
827;DHT22;395;48.132;11.608;2023-04-25T15:05:33;10.00;1.00
827;DHT22;395;48.132;11.608;2023-04-25T15:07:59;10.10;1.00
827;DHT22;395;48.132;11.608;2023-04-25T15:10:25;10.20;1.00
827;DHT22;395;48.132;11.608;2023-04-25T15:12:51;10.20;1.00
827;DHT22;395;48.132;11.608;2023-04-25T15:15:19;10.10;1.00
827;DHT22;395;48.132;11.608;2023-04-25T15:17:44;10.30;1.00
827;DHT22;395;48.132;11.608;2023-04-25T15:20:11;10.30;1.00
827;DHT22;395;48.132;11.608;2023-04-25T15:22:39;10.30;1.00
827;DHT22;395;48.132;11.608;2023-04-25T15:25:06;10.40;1.00
827;DHT22;395;48.132;11.608;2023-04-25T15:27:33;10.40;1.00
827;DHT22;395;48.132;11.608;2023-04-25T15:30:04;10.30;1.00
827;DHT22;395;48.132;11.608;2023-04-25T15:32:30;10.40;1.00
827;DHT22;395;48.132;11.608;2023-04-25T15:34:56;10.40;1.00
827;DHT22;395;48.132;11.608;2023-04-25T15:37:22;10.30;1.00
827;DHT22;395;48.132;11.608;2023-04-25T15:39:47;10.20;1.00
827;DHT22;395;48.132;11.608;2023-04-25T15:42:13;10.10;1.00
827;DHT22;395;48.132;11.608;2023-04-25T15:44:39;10.10;1.00
827;DHT22;395;48.132;11.608;2023-04-25T15:47:04;10.10;1.00
827;DHT22;395;48.132;11.608;2023-04-25T15:49:30;10.20;1.00
827;DHT22;395;48.132;11.608;2023-04-25T15:51:56;10.10;1.00
827;DHT22;395;48.132;11.608;2023-04-25T15:54:21;10.20;1.00
827;DHT22;395;48.132;11.608;2023-04-25T15:56:47;10.20;1.00
827;DHT22;395;48.132;11.608;2023-04-25T15:59:13;10.20;1.00
827;DHT22;395;48.132;11.608;2023-04-25T16:01:38;10.30;1.00
827;DHT22;395;48.132;11.608;2023-04-25T16:04:05;10.20;1.00
827;DHT22;395;48.132;11.608;2023-04-25T16:06:30;10.10;1.00
827;DHT22;395;48.132;11.608;2023-04-25T16:08:56;10.10;1.00
827;DHT22;395;48.132;11.608;2023-04-25T16:11:22;10.10;1.00
827;DHT22;395;48.132;11.608;2023-04-25T16:13:48;10.00;1.00
827;DHT22;395;48.132;11.608;2023-04-25T16:16:14;9.90;1.00
827;DHT22;395;48.132;11.608;2023-04-25T16:18:40;9.90;1.00
827;DHT22;395;48.132;11.608;2023-04-25T16:21:06;9.90;1.00
827;DHT22;395;48.132;11.608;2023-04-25T16:23:32;10.00;1.10
827;DHT22;395;48.132;11.608;2023-04-25T16:25:58;9.90;1.60
827;DHT22;395;48.132;11.608;2023-04-25T16:28:24;9.80;1.60
827;DHT22;395;48.132;11.608;2023-04-25T16:30:49;10.00;1.30
827;DHT22;395;48.132;11.608;2023-04-25T16:33:16;9.90;1.00
827;DHT22;395;48.132;11.608;2023-04-25T16:35:42;9.80;1.40
827;DHT22;395;48.132;11.608;2023-04-25T16:38:08;9.80;1.80
827;DHT22;395;48.132;11.608;2023-04-25T16:40:33;9.90;1.90
827;DHT22;395;48.132;11.608;2023-04-25T16:43:00;9.90;2.50